Time;durP1;ratioP1;P1;durP2;ratioP2;P2;SDS_P1;SDS_P2;PMS_P1;PMS_P2;Temp;Humidity;BMP_temperature;BMP_pressure;BME280_temperature;BME280_humidity;BME280_pressure;Samples;Min_cycle;Max_cycle;Signal;HPM_P1;HPM_P2
2023/05/20 00:00:10;;;;;;;13.18;6.32;;;;;;;16.53;56.82;102662.91;5048340;28;20033;-43
2023/05/20 00:02:35;;;;;;;10.90;6.32;;;;;;;16.43;57.20;102666.25;5048088;28;20045;-46
2023/05/20 00:05:00;;;;;;;11.75;6.20;;;;;;;16.70;56.49;102661.53;5048058;28;20025;-50
2023/05/20 00:07:26;;;;;;;14.05;6.25;;;;;;;16.66;56.33;102654.41;5048980;28;20033;-46
2023/05/20 00:09:51;;;;;;;13.57;6.03;;;;;;;16.43;57.16;102661.00;5051884;28;20729;-44
2023/05/20 00:12:17;;;;;;;12.05;6.57;;;;;;;16.41;57.04;102662.72;5052164;28;20055;-47
2023/05/20 00:14:42;;;;;;;12.60;6.07;;;;;;;16.13;57.96;102670.13;5052468;28;20075;-44
2023/05/20 00:17:08;;;;;;;11.50;6.28;;;;;;;16.40;56.97;102668.84;5051940;28;20033;-44
2023/05/20 00:19:33;;;;;;;11.52;5.90;;;;;;;16.40;56.98;102668.84;5052254;28;20041;-48
2023/05/20 00:21:58;;;;;;;17.13;6.50;;;;;;;16.49;56.42;102664.63;5052299;28;20187;-45
2023/05/20 00:24:24;;;;;;;16.60;6.38;;;;;;;16.20;57.39;102661.47;5052186;28;20090;-44
2023/05/20 00:26:50;;;;;;;13.73;5.80;;;;;;;16.58;56.39;102661.28;5051657;28;20026;-48
2023/05/20 00:29:15;;;;;;;17.13;6.20;;;;;;;16.39;57.11;102662.72;5052059;28;20025;-46
2023/05/20 00:31:40;;;;;;;12.40;6.30;;;;;;;16.51;56.38;102667.31;5051592;28;20394;-44
2023/05/20 00:34:06;;;;;;;14.43;6.18;;;;;;;16.38;56.78;102666.19;5051511;28;20518;-48
2023/05/20 00:36:32;;;;;;;14.32;6.18;;;;;;;16.43;56.83;102666.25;5051149;28;20391;-46
2023/05/20 00:38:57;;;;;;;15.68;6.90;;;;;;;16.45;56.71;102662.81;5051395;28;20514;-45
2023/05/20 00:41:22;;;;;;;11.90;6.40;;;;;;;16.30;57.21;102659.00;5051468;28;20041;-44
2023/05/20 00:43:52;;;;;;;10.07;6.18;;;;;;;16.34;57.26;102659.09;5051360;28;20037;-44
2023/05/20 00:46:17;;;;;;;12.13;6.43;;;;;;;16.40;57.05;102659.22;5051900;28;20044;-47
2023/05/20 00:48:43;;;;;;;11.88;6.40;;;;;;;16.31;57.41;102656.41;5051692;28;20033;-46
2023/05/20 00:51:13;;;;;;;14.57;6.60;;;;;;;16.17;58.03;102653.50;5051322;28;20106;-48
2023/05/20 00:53:40;;;;;;;11.57;6.78;;;;;;;16.08;58.29;102656.00;5050866;28;20495;-44
2023/05/20 00:56:06;;;;;;;14.48;6.75;;;;;;;16.33;57.32;102648.53;5051091;28;20025;-51
2023/05/20 00:58:33;;;;;;;14.65;6.97;;;;;;;16.06;58.31;102641.91;5050847;28;20124;-45
2023/05/20 01:00:58;;;;;;;11.13;6.32;;;;;;;16.22;58.05;102641.31;5050963;28;20021;-47
2023/05/20 01:03:24;;;;;;;11.25;6.38;;;;;;;16.10;58.66;102640.25;5051322;28;20124;-48
2023/05/20 01:05:49;;;;;;;13.63;6.57;;;;;;;15.67;60.06;102635.88;5050976;28;20025;-50
2023/05/20 01:08:14;;;;;;;13.65;6.60;;;;;;;16.28;58.14;102637.94;5051605;28;20044;-44
2023/05/20 01:10:46;;;;;;;14.20;6.82;;;;;;;16.10;58.99;102638.47;5051044;28;20561;-50
2023/05/20 01:13:21;;;;;;;16.15;6.90;;;;;;;16.01;59.38;102637.41;5051270;28;20124;-45
2023/05/20 01:15:48;;;;;;;15.20;7.10;;;;;;;15.55;60.53;102633.00;5050449;28;20033;-45
2023/05/20 01:18:17;;;;;;;12.68;6.38;;;;;;;15.97;59.21;102632.97;5051538;28;20384;-46
2023/05/20 01:20:44;;;;;;;11.20;6.47;;;;;;;15.79;59.81;102638.75;5049696;28;20033;-47
2023/05/20 01:23:10;;;;;;;14.10;6.40;;;;;;;15.87;59.67;102642.41;5050843;28;20443;-45
2023/05/20 01:25:35;;;;;;;15.10;6.80;;;;;;;16.01;59.38;102640.06;5051571;28;20029;-46
2023/05/20 01:28:01;;;;;;;14.15;6.43;;;;;;;16.03;59.53;102633.09;5050977;28;20040;-48
2023/05/20 01:30:32;;;;;;;12.20;6.32;;;;;;;16.10;59.32;102632.34;5051407;28;20068;-47
2023/05/20 01:33:03;;;;;;;11.93;6.85;;;;;;;15.67;60.97;102628.00;5051173;28;20041;-44
2023/05/20 01:35:29;;;;;;;13.45;6.82;;;;;;;15.65;60.71;102627.94;5050553;28;20162;-48
2023/05/20 01:37:56;;;;;;;13.23;6.93;;;;;;;15.71;60.47;102617.56;5050304;28;20124;-48
2023/05/20 01:40:22;;;;;;;11.05;6.32;;;;;;;15.86;60.09;102624.84;5050266;28;20045;-46
2023/05/20 01:42:51;;;;;;;11.70;6.07;;;;;;;16.10;59.15;102617.41;5050281;28;20040;-45
2023/05/20 01:45:17;;;;;;;15.68;6.78;;;;;;;15.87;60.04;102618.72;5057872;28;20041;-48
2023/05/20 01:47:44;;;;;;;15.85;6.80;;;;;;;16.02;59.62;102608.50;5060942;28;20040;-48
2023/05/20 01:50:10;;;;;;;16.88;6.60;;;;;;;15.71;60.33;102604.41;5051290;28;20049;-45
2023/05/20 01:52:35;;;;;;;15.90;7.07;;;;;;;15.82;60.01;102609.88;5050654;28;20071;-44
2023/05/20 01:55:00;;;;;;;14.85;6.95;;;;;;;15.91;59.78;102604.81;5050685;28;20112;-46
2023/05/20 01:57:26;;;;;;;12.80;6.75;;;;;;;16.01;59.30;102604.09;5050582;28;20337;-46
2023/05/20 01:59:51;;;;;;;11.85;7.15;;;;;;;15.95;59.58;102613.63;5050291;28;20083;-46
2023/05/20 02:02:16;;;;;;;12.98;6.90;;;;;;;15.99;59.54;102604.94;5050162;28;20040;-43
2023/05/20 02:04:46;;;;;;;11.93;6.18;;;;;;;16.06;59.08;102604.19;5050086;28;20380;-43
2023/05/20 02:07:13;;;;;;;14.77;6.82;;;;;;;16.16;58.71;102606.16;5049453;28;20480;-47
2023/05/20 02:09:38;;;;;;;14.93;7.25;;;;;;;16.00;59.27;102601.44;5049349;28;20059;-47
2023/05/20 02:12:04;;;;;;;14.82;7.43;;;;;;;15.45;61.03;102602.94;5049472;28;20053;-45
2023/05/20 02:14:29;;;;;;;17.23;7.15;;;;;;;15.60;60.54;102595.44;5049393;28;20044;-46
2023/05/20 02:16:55;;;;;;;16.38;6.50;;;;;;;15.96;59.67;102602.25;5049654;28;20036;-48
2023/05/20 02:19:22;;;;;;;14.32;6.65;;;;;;;15.82;59.95;102604.63;5049470;28;20041;-45
2023/05/20 02:21:48;;;;;;;15.35;6.97;;;;;;;15.98;59.36;102604.03;5049148;28;20035;-45
2023/05/20 02:24:15;;;;;;;13.75;6.20;;;;;;;15.80;60.18;102612.47;5049980;28;20036;-45
2023/05/20 02:26:40;;;;;;;12.02;6.75;;;;;;;16.08;58.98;102613.00;5049084;28;20560;-46
2023/05/20 02:29:06;;;;;;;14.40;6.88;;;;;;;16.10;59.14;102614.78;5049109;28;20142;-46
2023/05/20 02:31:31;;;;;;;18.42;6.70;;;;;;;15.74;60.22;102607.09;5049102;28;20033;-50
2023/05/20 02:33:56;;;;;;;13.40;7.25;;;;;;;15.90;59.92;102604.75;5049007;28;20535;-48
2023/05/20 02:36:22;;;;;;;13.13;7.13;;;;;;;15.82;60.23;102600.25;5048973;28;20047;-47
2023/05/20 02:38:47;;;;;;;14.93;6.88;;;;;;;15.85;60.43;102604.69;5048681;28;20033;-49
2023/05/20 02:41:13;;;;;;;15.60;6.88;;;;;;;16.05;59.52;102603.28;5048952;28;20180;-44
2023/05/20 02:43:39;;;;;;;13.40;6.68;;;;;;;15.78;60.45;102602.78;5049090;28;20051;-45
2023/05/20 02:46:05;;;;;;;12.57;6.22;;;;;;;15.97;59.68;102598.78;5048683;28;20029;-46
2023/05/20 02:48:30;;;;;;;11.38;6.63;;;;;;;15.91;60.10;102599.53;5048683;28;20037;-47
2023/05/20 02:50:58;;;;;;;10.82;6.10;;;;;;;15.76;60.29;102596.59;5048508;28;20033;-44
2023/05/20 02:53:23;;;;;;;12.98;6.53;;;;;;;16.06;59.36;102598.91;5048840;28;20056;-45
2023/05/20 02:55:49;;;;;;;15.85;7.20;;;;;;;16.07;59.31;102604.22;5048894;28;20037;-48
2023/05/20 02:58:16;;;;;;;13.75;6.38;;;;;;;16.11;59.23;102599.88;5050133;28;20033;-43
2023/05/20 03:00:41;;;;;;;14.38;6.90;;;;;;;15.79;59.76;102601.94;5054034;28;20033;-46
2023/05/20 03:03:08;;;;;;;15.35;6.97;;;;;;;15.89;59.66;102592.47;5051462;28;20056;-46
2023/05/20 03:05:36;;;;;;;12.43;6.70;;;;;;;15.93;59.45;102592.53;5051116;28;20628;-45
2023/05/20 03:08:11;;;;;;;13.82;6.72;;;;;;;15.66;60.10;102597.28;5048621;28;20060;-44
2023/05/20 03:10:37;;;;;;;15.00;6.45;;;;;;;15.79;59.73;102596.69;5049828;28;22093;-43
2023/05/20 03:13:07;;;;;;;15.88;6.43;;;;;;;15.87;59.48;102589.81;5052096;28;20091;-43
2023/05/20 03:15:32;;;;;;;10.98;6.47;;;;;;;15.77;60.03;102601.91;5050551;28;20105;-46
2023/05/20 03:17:57;;;;;;;19.13;7.22;;;;;;;15.91;59.35;102591.66;5050388;28;20620;-48
2023/05/20 03:20:23;;;;;;;13.00;6.47;;;;;;;15.96;58.98;102590.00;5049057;28;20052;-46
2023/05/20 03:22:48;;;;;;;13.27;7.03;;;;;;;16.07;58.85;102598.06;5048528;28;20029;-45
2023/05/20 03:25:13;;;;;;;16.48;7.20;;;;;;;15.96;58.92;102590.00;5048938;28;20033;-49
2023/05/20 03:27:39;;;;;;;12.40;6.78;;;;;;;16.15;58.70;102596.47;5048065;28;20033;-45
2023/05/20 03:30:05;;;;;;;13.18;6.97;;;;;;;15.78;59.71;102590.53;5048109;28;20067;-48
2023/05/20 03:32:30;;;;;;;14.60;7.45;;;;;;;15.89;59.73;102590.72;5047969;28;20044;-47
2023/05/20 03:34:57;;;;;;;13.60;6.70;;;;;;;15.89;59.75;102596.00;5048050;28;20384;-45
2023/05/20 03:37:22;;;;;;;12.32;6.90;;;;;;;16.06;59.17;102593.66;5048039;28;20045;-45
2023/05/20 03:39:48;;;;;;;13.30;7.18;;;;;;;15.88;59.79;102595.94;5048103;28;20078;-45
2023/05/20 03:42:13;;;;;;;13.25;6.95;;;;;;;15.71;60.30;102599.16;5047886;28;20457;-46
2023/05/20 03:44:38;;;;;;;15.10;7.00;;;;;;;15.79;60.59;102597.56;5047504;28;20063;-45
2023/05/20 03:47:04;;;;;;;15.27;7.55;;;;;;;15.42;60.83;102582.78;5053055;28;20033;-46
2023/05/20 03:49:29;;;;;;;13.77;7.53;;;;;;;15.68;60.91;102592.94;5055125;28;20096;-51
2023/05/20 03:51:54;;;;;;;18.20;7.57;;;;;;;15.72;60.83;102581.63;5053095;28;20037;-45
2023/05/20 03:54:20;;;;;;;12.90;7.30;;;;;;;15.39;61.74;102589.69;5047780;28;20040;-44
2023/05/20 03:56:45;;;;;;;17.33;7.70;;;;;;;15.52;61.33;102583.88;5048712;28;20067;-47
2023/05/20 03:59:11;;;;;;;17.58;7.43;;;;;;;15.74;60.78;102586.06;5047719;28;20037;-46
2023/05/20 04:01:36;;;;;;;13.57;7.40;;;;;;;15.49;61.08;102575.00;5047820;28;20064;-46
2023/05/20 04:04:02;;;;;;;17.75;7.85;;;;;;;15.61;61.18;102591.06;5047838;28;20124;-49
2023/05/20 04:06:27;;;;;;;14.65;7.47;;;;;;;15.52;61.62;102589.13;5047681;28;20491;-45
2023/05/20 04:08:53;;;;;;;13.23;7.28;;;;;;;15.64;60.67;102586.75;5047858;28;20033;-50
2023/05/20 04:11:18;;;;;;;12.48;7.55;;;;;;;15.83;60.51;102588.88;5047633;28;20041;-48
2023/05/20 04:13:44;;;;;;;14.63;7.13;;;;;;;16.06;59.66;102583.13;5048054;28;20029;-46
2023/05/20 04:16:09;;;;;;;13.52;7.53;;;;;;;15.89;60.31;102589.84;5047404;28;20059;-45
2023/05/20 04:18:37;;;;;;;18.25;7.80;;;;;;;15.69;61.18;102592.06;5047410;28;20045;-45
2023/05/20 04:21:03;;;;;;;14.23;7.40;;;;;;;15.87;60.64;102587.16;5047477;28;20462;-46
2023/05/20 04:23:28;;;;;;;13.82;7.00;;;;;;;15.70;61.21;102581.59;5047476;28;20037;-48
2023/05/20 04:25:54;;;;;;;13.63;7.10;;;;;;;16.08;60.09;102589.31;5046068;28;20647;-45
2023/05/20 04:28:22;;;;;;;13.13;7.53;;;;;;;15.59;61.33;102588.41;5047620;28;20575;-46
2023/05/20 04:30:48;;;;;;;14.88;7.82;;;;;;;15.90;60.86;102589.88;5047666;28;20033;-47
2023/05/20 04:33:15;;;;;;;15.38;7.65;;;;;;;16.09;60.38;102586.72;5047827;28;20513;-44
2023/05/20 04:35:40;;;;;;;14.32;7.25;;;;;;;15.98;61.04;102588.25;5047648;28;20098;-47
2023/05/20 04:38:06;;;;;;;14.70;7.43;;;;;;;16.14;60.50;102598.22;5047142;28;20033;-48
2023/05/20 04:40:31;;;;;;;13.05;7.68;;;;;;;16.10;60.43;102599.00;5047043;28;20060;-49
2023/05/20 04:42:58;;;;;;;12.40;7.43;;;;;;;16.12;60.66;102594.66;5047117;28;20113;-44
2023/05/20 04:45:24;;;;;;;13.85;7.93;;;;;;;15.93;61.19;102587.28;5047153;28;20037;-47
2023/05/20 04:47:51;;;;;;;14.48;8.20;;;;;;;16.11;60.80;102592.00;5046978;28;20101;-44
2023/05/20 04:50:17;;;;;;;13.85;8.15;;;;;;;15.91;61.46;102588.13;5047397;28;20040;-47
2023/05/20 04:52:44;;;;;;;13.90;7.60;;;;;;;16.22;60.55;102590.47;5048146;28;20029;-48
2023/05/20 04:55:10;;;;;;;15.23;7.80;;;;;;;16.57;59.62;102588.41;5049363;28;20025;-48
2023/05/20 04:57:38;;;;;;;12.18;7.60;;;;;;;16.49;59.86;102590.03;5051201;28;20055;-45
2023/05/20 05:00:06;;;;;;;13.57;7.80;;;;;;;16.40;60.01;102585.50;5050949;28;20452;-44
2023/05/20 05:02:32;;;;;;;14.10;8.18;;;;;;;16.49;59.96;102587.38;5050597;28;20037;-45
2023/05/20 05:04:57;;;;;;;14.27;8.07;;;;;;;16.43;59.98;102582.91;5050851;28;20033;-45
2023/05/20 05:07:23;;;;;;;14.95;7.65;;;;;;;16.77;58.95;102586.97;5050754;28;20036;-47
2023/05/20 05:09:48;;;;;;;15.85;8.02;;;;;;;16.72;58.99;102578.13;5050643;28;20029;-43
2023/05/20 05:12:13;;;;;;;14.82;7.68;;;;;;;16.83;59.82;102587.06;5050858;28;20119;-47
2023/05/20 05:14:39;;;;;;;16.13;8.05;;;;;;;17.51;57.18;102576.56;5050492;28;20098;-47
2023/05/20 05:17:04;;;;;;;15.65;7.25;;;;;;;18.33;54.60;102582.75;5050129;28;20526;-46
2023/05/20 05:19:29;;;;;;;12.65;7.50;;;;;;;18.58;52.63;102583.84;5050280;28;20041;-50
2023/05/20 05:21:55;;;;;;;15.63;7.80;;;;;;;18.03;54.08;102582.47;5050353;28;20083;-47
2023/05/20 05:24:20;;;;;;;14.98;7.20;;;;;;;18.21;53.61;102586.16;5050532;28;20040;-46
2023/05/20 05:26:45;;;;;;;13.02;7.65;;;;;;;18.22;53.01;102584.41;5050832;28;20211;-44
2023/05/20 05:29:10;;;;;;;15.35;8.10;;;;;;;18.04;53.82;102581.59;5050219;28;20034;-44
2023/05/20 05:31:36;;;;;;;15.15;8.40;;;;;;;17.26;56.12;102585.94;5049974;28;20040;-48
2023/05/20 05:34:01;;;;;;;16.17;7.95;;;;;;;17.26;56.37;102583.28;5049858;28;20116;-45
2023/05/20 05:36:26;;;;;;;17.50;8.60;;;;;;;17.41;56.16;102579.97;5050373;28;20029;-46
2023/05/20 05:38:52;;;;;;;16.90;8.02;;;;;;;17.38;56.61;102578.16;5050070;28;20033;-44
2023/05/20 05:41:17;;;;;;;22.92;8.85;;;;;;;16.86;57.50;102584.50;5050539;28;20033;-45
2023/05/20 05:43:42;;;;;;;15.32;8.20;;;;;;;17.34;56.68;102572.84;5050821;28;20403;-44
2023/05/20 05:46:08;;;;;;;13.90;8.45;;;;;;;17.48;56.57;102573.03;5051178;28;20044;-47
2023/05/20 05:48:35;;;;;;;17.52;8.32;;;;;;;17.15;56.98;102571.72;5054307;28;20040;-48
2023/05/20 05:51:01;;;;;;;16.27;9.20;;;;;;;17.40;56.45;102568.53;5058148;28;20033;-55
2023/05/20 05:53:26;;;;;;;14.32;8.85;;;;;;;17.43;56.00;102571.22;5060329;28;20033;-47
2023/05/20 05:55:52;;;;;;;15.32;8.73;;;;;;;17.06;57.99;102579.53;5054343;28;20040;-45
2023/05/20 05:58:17;;;;;;;14.98;8.32;;;;;;;17.64;56.62;102565.34;5049826;28;20032;-46
2023/05/20 06:00:42;;;;;;;15.63;8.90;;;;;;;17.62;57.06;102563.56;5050316;28;20036;-44
2023/05/20 06:03:08;;;;;;;13.63;8.63;;;;;;;17.88;56.28;102579.66;5050101;28;20040;-50
2023/05/20 06:05:33;;;;;;;14.25;8.43;;;;;;;18.07;56.31;102574.56;5049174;28;20043;-46
2023/05/20 06:07:58;;;;;;;16.10;8.68;;;;;;;18.62;54.02;102575.06;5049772;28;20052;-44
2023/05/20 06:10:24;;;;;;;16.85;8.30;;;;;;;19.01;53.15;102579.75;5049080;28;20033;-51
2023/05/20 06:12:49;;;;;;;17.55;8.30;;;;;;;18.74;53.08;102575.16;5049152;28;20071;-46
2023/05/20 06:15:14;;;;;;;17.10;8.27;;;;;;;19.14;52.90;102576.28;5049732;28;20029;-46
2023/05/20 06:17:40;;;;;;;14.05;7.63;;;;;;;18.97;52.42;102578.81;5049141;28;20095;-44
2023/05/20 06:20:06;;;;;;;15.82;8.20;;;;;;;18.94;52.92;102572.66;5048995;28;20029;-44
2023/05/20 06:22:31;;;;;;;15.52;7.50;;;;;;;19.27;52.60;102569.31;5048577;28;20036;-46
2023/05/20 06:24:59;;;;;;;13.27;7.70;;;;;;;19.79;51.58;102565.09;5049220;28;20029;-46
2023/05/20 06:27:25;;;;;;;10.95;7.35;;;;;;;20.90;48.43;102558.03;5048771;28;20056;-45
2023/05/20 06:29:50;;;;;;;14.05;6.75;;;;;;;22.45;44.21;102550.97;5049060;28;20032;-45
2023/05/20 06:32:15;;;;;;;10.40;5.95;;;;;;;23.60;41.78;102559.50;5049378;28;20036;-44
2023/05/20 06:34:40;;;;;;;10.85;5.63;;;;;;;23.95;40.80;102564.28;5049171;28;20032;-44
2023/05/20 06:37:06;;;;;;;12.10;5.43;;;;;;;25.01;39.00;102551.78;5049056;28;20029;-45
2023/05/20 06:39:31;;;;;;;7.45;4.70;;;;;;;26.32;36.20;102543.50;5048944;28;20045;-48
2023/05/20 06:41:56;;;;;;;10.85;4.75;;;;;;;25.96;35.00;102550.63;5048793;28;20120;-48
2023/05/20 06:44:22;;;;;;;10.60;4.63;;;;;;;25.70;35.32;102546.75;5048690;28;20041;-46
2023/05/20 06:46:47;;;;;;;7.40;3.92;;;;;;;26.61;33.72;102554.31;5048768;28;20037;-52
2023/05/20 06:49:12;;;;;;;8.35;4.32;;;;;;;24.30;36.71;102556.63;5049821;28;20120;-48
2023/05/20 06:51:38;;;;;;;10.75;4.32;;;;;;;25.03;36.30;102548.19;5049152;28;20465;-51
2023/05/20 06:54:03;;;;;;;6.93;4.47;;;;;;;25.46;35.62;102540.16;5049079;28;20041;-48
2023/05/20 06:56:29;;;;;;;9.40;4.38;;;;;;;25.41;36.07;102541.16;5048697;28;20112;-49
2023/05/20 06:58:54;;;;;;;9.65;4.13;;;;;;;26.73;33.70;102532.56;5048754;28;20112;-47
2023/05/20 07:01:19;;;;;;;6.28;3.88;;;;;;;26.85;33.06;102536.69;5048666;28;20112;-47
2023/05/20 07:03:45;;;;;;;7.82;4.13;;;;;;;26.79;32.64;102537.75;5049180;28;20560;-50
2023/05/20 07:06:10;;;;;;;7.38;4.05;;;;;;;26.38;33.35;102538.00;5047901;28;20124;-50
2023/05/20 07:08:35;;;;;;;6.45;3.53;;;;;;;26.83;33.20;102538.56;5048849;28;20146;-47
2023/05/20 07:11:01;;;;;;;7.60;4.10;;;;;;;26.45;32.38;102531.56;5048429;28;20075;-47
2023/05/20 07:13:26;;;;;;;6.63;3.80;;;;;;;26.84;32.45;102525.09;5048760;28;20036;-45
2023/05/20 07:15:52;;;;;;;8.77;3.80;;;;;;;26.31;33.11;102528.38;5048588;28;20036;-47
2023/05/20 07:18:17;;;;;;;9.60;4.15;;;;;;;26.83;32.66;102517.16;5047720;28;20047;-48
2023/05/20 07:20:43;;;;;;;6.18;4.10;;;;;;;27.37;31.26;102518.22;5048951;28;20057;-45
2023/05/20 07:23:09;;;;;;;6.63;4.05;;;;;;;27.42;31.58;102520.75;5048231;28;20051;-48
2023/05/20 07:25:34;;;;;;;8.25;4.03;;;;;;;26.61;33.84;102519.53;5049138;28;20682;-46
2023/05/20 07:27:59;;;;;;;8.10;4.80;;;;;;;26.54;32.60;102516.13;5048194;28;20432;-50
2023/05/20 07:30:26;;;;;;;7.30;4.35;;;;;;;26.37;33.11;102521.06;5048505;28;20033;-46
2023/05/20 07:32:51;;;;;;;6.57;4.25;;;;;;;27.01;32.64;102503.28;5048351;28;20120;-48
2023/05/20 07:35:16;;;;;;;9.82;3.95;;;;;;;27.35;31.39;102519.19;5048526;28;20119;-46
2023/05/20 07:37:42;;;;;;;7.90;4.05;;;;;;;27.63;31.17;102509.38;5048186;28;20033;-48
2023/05/20 07:40:07;;;;;;;9.38;4.10;;;;;;;27.16;31.62;102509.94;5047651;28;20579;-47
2023/05/20 07:42:33;;;;;;;11.82;4.28;;;;;;;26.97;32.04;102512.28;5047609;28;20049;-47
2023/05/20 07:44:59;;;;;;;8.75;4.47;;;;;;;27.22;31.92;102509.78;5047855;28;20399;-44
2023/05/20 07:47:24;;;;;;;8.07;3.97;;;;;;;26.62;31.83;102518.63;5047908;28;20033;-53
2023/05/20 07:49:50;;;;;;;6.80;3.80;;;;;;;27.51;31.27;102508.91;5047866;28;20029;-46
2023/05/20 07:52:15;;;;;;;8.90;4.50;;;;;;;27.05;31.92;102500.44;5050204;28;20096;-49
2023/05/20 07:54:40;;;;;;;5.20;3.70;;;;;;;28.14;30.91;102505.97;5054194;28;20079;-49
2023/05/20 07:57:06;;;;;;;10.55;4.53;;;;;;;28.10;30.06;102496.25;5053189;28;20025;-47
2023/05/20 07:59:31;;;;;;;10.40;3.95;;;;;;;27.84;30.83;102502.47;5047957;28;20126;-45
2023/05/20 08:01:57;;;;;;;5.63;3.88;;;;;;;26.88;31.35;102494.72;5047938;28;20395;-47
2023/05/20 08:04:22;;;;;;;7.53;3.92;;;;;;;26.70;31.81;102495.22;5047856;28;20037;-47
2023/05/20 08:06:48;;;;;;;6.65;3.88;;;;;;;27.09;31.55;102487.84;5047878;28;20045;-49
2023/05/20 08:09:14;;;;;;;7.45;3.80;;;;;;;27.81;30.13;102499.91;5048242;28;20063;-49
2023/05/20 08:11:39;;;;;;;9.60;3.90;;;;;;;28.34;29.58;102497.22;5047880;28;20037;-50
2023/05/20 08:14:05;;;;;;;9.75;4.15;;;;;;;26.98;31.87;102495.31;5047750;28;20033;-47
2023/05/20 08:16:30;;;;;;;7.43;3.75;;;;;;;26.80;31.47;102496.69;5047687;28;20033;-45
2023/05/20 08:18:55;;;;;;;7.88;4.15;;;;;;;26.96;31.02;102495.34;5048066;28;20033;-48
2023/05/20 08:21:21;;;;;;;6.95;4.40;;;;;;;25.48;33.91;102496.50;5048128;28;20090;-47
2023/05/20 08:23:47;;;;;;;10.38;3.92;;;;;;;25.67;33.68;102495.22;5048962;28;20051;-49
2023/05/20 08:26:12;;;;;;;7.95;4.00;;;;;;;24.55;35.69;102495.75;5050591;28;20060;-45
2023/05/20 08:28:38;;;;;;;8.40;3.88;;;;;;;24.87;36.00;102497.81;5051375;28;20082;-45
2023/05/20 08:31:03;;;;;;;7.93;4.30;;;;;;;24.21;36.99;102493.69;5056697;28;20124;-50
2023/05/20 08:33:29;;;;;;;12.50;4.80;;;;;;;23.02;38.50;102491.00;5055355;28;20064;-49
2023/05/20 08:35:54;;;;;;;7.35;4.50;;;;;;;22.56;39.48;102488.00;5053762;28;20041;-45
2023/05/20 08:38:20;;;;;;;7.95;4.25;;;;;;;23.08;39.33;102490.94;5051862;28;20637;-46
2023/05/20 08:40:50;;;;;;;8.50;4.35;;;;;;;22.88;39.16;102485.84;5052148;28;20072;-50
2023/05/20 08:43:15;;;;;;;8.93;4.30;;;;;;;22.83;39.63;102489.47;5053724;28;20037;-49
2023/05/20 08:45:41;;;;;;;8.25;4.65;;;;;;;22.59;40.83;102491.47;5054596;28;20219;-44
2023/05/20 08:48:06;;;;;;;7.18;4.57;;;;;;;22.74;39.24;102471.88;5054116;28;20491;-44
2023/05/20 08:50:32;;;;;;;6.85;3.83;;;;;;;22.98;39.44;102478.66;5051043;28;20051;-49
2023/05/20 08:52:58;;;;;;;8.27;3.50;;;;;;;23.10;40.45;102475.84;5050821;28;20071;-45
2023/05/20 08:55:28;;;;;;;8.30;4.00;;;;;;;23.11;37.88;102474.94;5051059;28;20036;-47
2023/05/20 08:57:54;;;;;;;7.25;3.88;;;;;;;23.47;37.13;102473.59;5050914;28;20036;-45
2023/05/20 09:00:25;;;;;;;9.88;3.80;;;;;;;22.40;37.79;102478.41;5050779;28;20041;-45
2023/05/20 09:02:52;;;;;;;8.50;3.63;;;;;;;22.57;37.29;102476.44;5045244;28;20078;-46
2023/05/20 09:05:17;;;;;;;7.30;3.70;;;;;;;22.84;37.04;102460.22;5051485;28;20550;-44
2023/05/20 09:07:43;;;;;;;8.20;3.60;;;;;;;22.66;37.04;102468.38;5051064;28;20087;-44
2023/05/20 09:10:09;;;;;;;6.55;3.60;;;;;;;23.18;37.14;102473.06;5050811;28;20390;-49
2023/05/20 09:12:35;;;;;;;5.13;3.17;;;;;;;23.07;35.78;102462.56;5050768;28;20507;-46
2023/05/20 09:15:00;;;;;;;8.73;3.60;;;;;;;22.96;35.97;102460.06;5051079;28;20495;-46
2023/05/20 09:17:26;;;;;;;4.85;3.35;;;;;;;23.33;36.36;102464.88;5051510;28;20044;-44
2023/05/20 09:19:52;;;;;;;5.53;3.70;;;;;;;23.35;36.68;102465.75;5050776;28;20033;-46
2023/05/20 09:22:24;;;;;;;6.38;3.65;;;;;;;22.48;36.71;102452.63;5050570;28;20127;-46
2023/05/20 09:24:51;;;;;;;6.78;3.67;;;;;;;22.41;38.01;102456.25;5052472;28;20021;-44
2023/05/20 09:27:16;;;;;;;6.00;3.47;;;;;;;23.09;37.91;102465.22;5053063;28;20029;-46
2023/05/20 09:29:42;;;;;;;11.35;4.10;;;;;;;22.40;37.80;102450.03;5050658;28;20036;-45
2023/05/20 09:32:12;;;;;;;6.30;3.33;;;;;;;22.86;38.08;102452.22;5050156;28;20036;-48
2023/05/20 09:34:37;;;;;;;5.28;3.60;;;;;;;22.67;38.39;102451.53;5050041;28;20037;-48
2023/05/20 09:37:06;;;;;;;5.60;3.42;;;;;;;22.61;37.58;102455.16;5050180;28;20033;-45
2023/05/20 09:39:36;;;;;;;6.18;3.40;;;;;;;22.80;36.58;102445.22;5049860;28;20380;-48
2023/05/20 09:42:17;;;;;;;5.03;3.15;;;;;;;22.96;36.61;102444.09;5049593;28;20025;-47
2023/05/20 09:44:44;;;;;;;10.23;3.58;;;;;;;22.71;37.09;102439.06;5049985;28;20041;-50
2023/05/20 09:47:10;;;;;;;7.43;3.20;;;;;;;22.61;37.65;102443.63;5050103;28;20036;-45
2023/05/20 09:49:36;;;;;;;5.32;3.33;;;;;;;22.67;36.66;102441.78;5050031;28;20060;-47
2023/05/20 09:52:02;;;;;;;7.38;3.50;;;;;;;22.91;36.91;102439.75;5049960;28;20044;-46
2023/05/20 09:54:28;;;;;;;9.60;3.33;;;;;;;22.60;36.69;102432.09;5050336;28;20045;-52
2023/05/20 09:56:56;;;;;;;7.95;3.55;;;;;;;22.70;37.41;102427.53;5055453;28;20407;-50
2023/05/20 09:59:23;;;;;;;8.60;3.67;;;;;;;22.61;36.80;102431.22;5053737;28;20501;-47
2023/05/20 10:01:49;;;;;;;6.15;3.13;;;;;;;22.68;37.70;102432.03;5049630;28;20091;-50
2023/05/20 10:04:16;;;;;;;6.28;3.03;;;;;;;23.05;36.60;102430.66;5049723;28;20029;-44
2023/05/20 10:06:54;;;;;;;6.03;2.83;;;;;;;23.32;36.27;102423.19;5049727;28;20029;-46
2023/05/20 10:09:39;;;;;;;6.32;3.10;;;;;;;23.12;36.11;102419.94;5049477;28;20052;-46
2023/05/20 10:12:10;;;;;;;4.78;3.00;;;;;;;23.31;34.38;102414.31;5049793;28;20052;-45
2023/05/20 10:14:41;;;;;;;4.53;2.78;;;;;;;23.41;34.93;102415.09;5049899;28;20047;-48
2023/05/20 10:17:16;;;;;;;8.63;3.00;;;;;;;23.36;35.68;102412.47;5049627;28;20061;-44
2023/05/20 10:19:42;;;;;;;9.45;3.25;;;;;;;23.39;33.57;102411.56;5049492;28;20068;-48
2023/05/20 10:22:09;;;;;;;5.20;3.15;;;;;;;23.27;34.92;102419.72;5049732;28;20037;-44
2023/05/20 10:24:39;;;;;;;4.57;2.70;;;;;;;23.22;34.23;102419.81;5049309;28;20499;-44
2023/05/20 10:27:08;;;;;;;4.80;2.70;;;;;;;23.29;34.07;102413.50;5049922;28;20120;-47
2023/05/20 10:29:45;;;;;;;4.80;2.80;;;;;;;23.52;34.07;102405.19;5051685;28;20032;-47
2023/05/20 10:32:11;;;;;;;5.18;2.75;;;;;;;23.16;34.46;102406.59;5052253;28;20036;-47
2023/05/20 10:34:48;;;;;;;6.28;2.90;;;;;;;23.21;34.42;102412.72;5049372;28;20053;-44
2023/05/20 10:37:23;;;;;;;5.28;3.05;;;;;;;23.26;33.73;102383.38;5047622;28;20469;-46
2023/05/20 10:39:48;;;;;;;5.55;2.80;;;;;;;23.25;34.31;102394.91;5048962;28;20040;-47
2023/05/20 10:42:13;;;;;;;5.25;2.70;;;;;;;23.26;34.32;102394.00;5049068;28;20431;-46
2023/05/20 10:44:43;;;;;;;4.10;2.80;;;;;;;23.49;33.66;102383.03;5049256;28;20029;-48
2023/05/20 10:47:09;;;;;;;7.45;2.60;;;;;;;23.82;33.50;102377.16;5048940;28;20086;-44
2023/05/20 10:49:35;;;;;;;3.58;2.63;;;;;;;23.80;34.01;102374.50;5048873;28;20376;-44
2023/05/20 10:52:00;;;;;;;5.90;2.60;;;;;;;24.19;33.10;102375.59;5048737;28;20402;-44
2023/05/20 10:54:26;;;;;;;9.73;2.80;;;;;;;24.13;34.01;102382.78;5048692;28;20562;-48
2023/05/20 10:56:52;;;;;;;5.80;2.92;;;;;;;23.83;33.26;102382.47;5048845;28;20032;-48
2023/05/20 10:59:20;;;;;;;5.25;2.53;;;;;;;23.97;33.16;102378.69;5048889;28;20495;-48
2023/05/20 11:01:45;;;;;;;7.30;2.83;;;;;;;23.25;33.65;102369.19;5049062;28;20033;-48
2023/05/20 11:04:13;;;;;;;6.20;2.90;;;;;;;23.50;34.45;102364.38;5048450;28;20029;-47
2023/05/20 11:06:52;;;;;;;5.15;2.80;;;;;;;23.74;33.33;102350.66;5048437;28;20048;-45
2023/05/20 11:09:18;;;;;;;6.82;2.80;;;;;;;23.74;33.28;102365.75;5048112;28;20032;-49
2023/05/20 11:11:43;;;;;;;5.15;2.50;;;;;;;;;;5048567;28;20040;-47
2023/05/20 11:14:12;;;;;;;4.47;2.50;;;;;;;24.07;32.62;102348.28;5048233;28;20033;-47
2023/05/20 11:16:38;;;;;;;6.47;2.78;;;;;;;23.82;33.02;102351.41;5048133;28;20075;-46